sensor_id;sensor_type;location;lat;lon;timestamp;pressure;altitude;pressure_sealevel;temperature;humidity
27643;BME280;15053;48.618;10.024;2024-01-30T00:00:34;95556.88;;;3.97;88.38
27643;BME280;15053;48.618;10.024;2024-01-30T00:03:01;95560.50;;;4.14;87.68
27643;BME280;15053;48.618;10.024;2024-01-30T00:05:28;95565.69;;;4.26;88.63
27643;BME280;15053;48.618;10.024;2024-01-30T00:07:54;95562.84;;;4.34;88.74
27643;BME280;15053;48.618;10.024;2024-01-30T00:10:21;95561.97;;;4.40;88.48
27643;BME280;15053;48.618;10.024;2024-01-30T00:12:47;95555.72;;;4.48;87.86
27643;BME280;15053;48.618;10.024;2024-01-30T00:15:14;95558.03;;;4.56;87.93
27643;BME280;15053;48.618;10.024;2024-01-30T00:17:41;95557.16;;;4.62;88.00
27643;BME280;15053;48.618;10.024;2024-01-30T00:20:08;95554.94;;;4.65;87.83
27643;BME280;15053;48.618;10.024;2024-01-30T00:22:36;95556.84;;;4.70;86.84
27643;BME280;15053;48.618;10.024;2024-01-30T00:25:03;95561.16;;;4.76;86.99
27643;BME280;15053;48.618;10.024;2024-01-30T00:27:29;95558.94;;;4.80;86.89
27643;BME280;15053;48.618;10.024;2024-01-30T00:29:56;95557.69;;;4.82;86.42
27643;BME280;15053;48.618;10.024;2024-01-30T00:32:22;95551.69;;;4.88;85.93
27643;BME280;15053;48.618;10.024;2024-01-30T00:34:49;95548.00;;;4.96;86.07
27643;BME280;15053;48.618;10.024;2024-01-30T00:37:16;95544.97;;;4.99;85.94
27643;BME280;15053;48.618;10.024;2024-01-30T00:39:43;95544.53;;;5.02;85.46
27643;BME280;15053;48.618;10.024;2024-01-30T00:42:10;95551.25;;;5.03;84.82
27643;BME280;15053;48.618;10.024;2024-01-30T00:44:36;95548.91;;;5.01;84.47
27643;BME280;15053;48.618;10.024;2024-01-30T00:47:06;95553.59;;;4.93;83.96
27643;BME280;15053;48.618;10.024;2024-01-30T00:49:32;95556.47;;;4.85;83.13
27643;BME280;15053;48.618;10.024;2024-01-30T00:52:00;95554.63;;;4.73;82.83
27643;BME280;15053;48.618;10.024;2024-01-30T00:54:27;95551.00;;;4.63;83.54
27643;BME280;15053;48.618;10.024;2024-01-30T00:56:53;95552.09;;;4.55;82.97
27643;BME280;15053;48.618;10.024;2024-01-30T00:59:20;95551.16;;;4.50;84.00
27643;BME280;15053;48.618;10.024;2024-01-30T01:01:46;95546.63;;;4.45;83.64
27643;BME280;15053;48.618;10.024;2024-01-30T01:04:13;95548.09;;;4.41;83.66
27643;BME280;15053;48.618;10.024;2024-01-30T01:06:40;95556.03;;;4.40;84.13
27643;BME280;15053;48.618;10.024;2024-01-30T01:09:11;95547.53;;;4.39;84.10
27643;BME280;15053;48.618;10.024;2024-01-30T01:11:38;95544.94;;;4.39;84.44
27643;BME280;15053;48.618;10.024;2024-01-30T01:14:05;95549.44;;;4.44;84.69
27643;BME280;15053;48.618;10.024;2024-01-30T01:16:31;95546.34;;;4.53;84.57
27643;BME280;15053;48.618;10.024;2024-01-30T01:18:58;95553.88;;;4.55;84.05
27643;BME280;15053;48.618;10.024;2024-01-30T01:21:26;95551.38;;;4.48;83.38
27643;BME280;15053;48.618;10.024;2024-01-30T01:23:53;95548.38;;;4.33;83.16
27643;BME280;15053;48.618;10.024;2024-01-30T01:26:20;95554.81;;;4.24;83.34
27643;BME280;15053;48.618;10.024;2024-01-30T01:28:48;95551.97;;;4.14;83.21
27643;BME280;15053;48.618;10.024;2024-01-30T01:31:14;95557.91;;;4.14;83.56
27643;BME280;15053;48.618;10.024;2024-01-30T01:33:41;95559.91;;;4.12;83.56
27643;BME280;15053;48.618;10.024;2024-01-30T01:36:08;95555.97;;;4.10;83.59
27643;BME280;15053;48.618;10.024;2024-01-30T01:38:35;95554.41;;;4.09;84.33
27643;BME280;15053;48.618;10.024;2024-01-30T01:41:02;95549.66;;;4.06;83.65
27643;BME280;15053;48.618;10.024;2024-01-30T01:43:28;95555.44;;;4.01;84.58
27643;BME280;15053;48.618;10.024;2024-01-30T01:45:56;95550.94;;;3.97;84.70
27643;BME280;15053;48.618;10.024;2024-01-30T01:48:23;95548.38;;;3.97;84.41
27643;BME280;15053;48.618;10.024;2024-01-30T01:50:51;95545.66;;;3.92;84.41
27643;BME280;15053;48.618;10.024;2024-01-30T01:53:19;95549.78;;;3.93;85.13
27643;BME280;15053;48.618;10.024;2024-01-30T01:55:45;95552.94;;;3.95;85.60
27643;BME280;15053;48.618;10.024;2024-01-30T01:58:12;95548.38;;;3.97;84.95
27643;BME280;15053;48.618;10.024;2024-01-30T02:00:39;95545.78;;;3.97;85.07
27643;BME280;15053;48.618;10.024;2024-01-30T02:03:10;95548.38;;;3.97;85.11
27643;BME280;15053;48.618;10.024;2024-01-30T02:05:38;95548.22;;;3.92;85.34
27643;BME280;15053;48.618;10.024;2024-01-30T02:08:05;95548.28;;;3.85;84.89
27643;BME280;15053;48.618;10.024;2024-01-30T02:10:32;95541.63;;;3.78;84.87
27643;BME280;15053;48.618;10.024;2024-01-30T02:12:58;95535.75;;;3.71;85.22
27643;BME280;15053;48.618;10.024;2024-01-30T02:15:25;95542.31;;;3.67;85.15
27643;BME280;15053;48.618;10.024;2024-01-30T02:17:51;95538.56;;;3.63;84.87
27643;BME280;15053;48.618;10.024;2024-01-30T02:20:18;95530.69;;;3.57;85.16
27643;BME280;15053;48.618;10.024;2024-01-30T02:22:46;95534.91;;;3.52;84.98
27643;BME280;15053;48.618;10.024;2024-01-30T02:25:13;95540.47;;;3.49;85.04
27643;BME280;15053;48.618;10.024;2024-01-30T02:27:40;95541.31;;;3.43;84.87
27643;BME280;15053;48.618;10.024;2024-01-30T02:30:07;95544.16;;;3.35;85.27
27643;BME280;15053;48.618;10.024;2024-01-30T02:32:33;95543.38;;;3.34;85.45
27643;BME280;15053;48.618;10.024;2024-01-30T02:35:00;95544.94;;;3.35;85.93
27643;BME280;15053;48.618;10.024;2024-01-30T02:37:27;95542.72;;;3.39;86.37
27643;BME280;15053;48.618;10.024;2024-01-30T02:39:53;95544.09;;;3.41;86.19
27643;BME280;15053;48.618;10.024;2024-01-30T02:42:26;95531.22;;;3.41;86.04
27643;BME280;15053;48.618;10.024;2024-01-30T02:44:53;95536.94;;;3.43;86.42
27643;BME280;15053;48.618;10.024;2024-01-30T02:47:20;95537.97;;;3.42;86.24
27643;BME280;15053;48.618;10.024;2024-01-30T02:49:46;95540.72;;;3.41;86.41
27643;BME280;15053;48.618;10.024;2024-01-30T02:52:13;95535.81;;;3.39;86.54
27643;BME280;15053;48.618;10.024;2024-01-30T02:54:39;95536.78;;;3.38;86.45
27643;BME280;15053;48.618;10.024;2024-01-30T02:57:06;95539.59;;;3.37;86.50
27643;BME280;15053;48.618;10.024;2024-01-30T02:59:33;95531.06;;;3.36;86.26
27643;BME280;15053;48.618;10.024;2024-01-30T03:02:02;95534.44;;;3.37;86.87
27643;BME280;15053;48.618;10.024;2024-01-30T03:04:29;95534.22;;;3.38;87.08
27643;BME280;15053;48.618;10.024;2024-01-30T03:06:56;95532.25;;;3.40;87.01
27643;BME280;15053;48.618;10.024;2024-01-30T03:09:23;95534.38;;;3.43;86.97
27643;BME280;15053;48.618;10.024;2024-01-30T03:11:49;95532.00;;;3.42;87.06
27643;BME280;15053;48.618;10.024;2024-01-30T03:14:16;95522.50;;;3.42;87.12
27643;BME280;15053;48.618;10.024;2024-01-30T03:16:43;95526.88;;;3.42;86.86
27643;BME280;15053;48.618;10.024;2024-01-30T03:19:09;95524.28;;;3.42;87.13
27643;BME280;15053;48.618;10.024;2024-01-30T03:21:36;95524.06;;;3.43;87.08
27643;BME280;15053;48.618;10.024;2024-01-30T03:24:03;95522.69;;;3.41;87.00
27643;BME280;15053;48.618;10.024;2024-01-30T03:26:30;95523.34;;;3.36;86.59
27643;BME280;15053;48.618;10.024;2024-01-30T03:28:57;95522.63;;;3.29;86.34
27643;BME280;15053;48.618;10.024;2024-01-30T03:31:23;95526.59;;;3.25;86.72
27643;BME280;15053;48.618;10.024;2024-01-30T03:33:50;95527.44;;;3.19;86.69
27643;BME280;15053;48.618;10.024;2024-01-30T03:36:17;95520.53;;;3.13;86.20
27643;BME280;15053;48.618;10.024;2024-01-30T03:38:43;95526.31;;;3.09;86.20
27643;BME280;15053;48.618;10.024;2024-01-30T03:41:10;95529.53;;;3.04;86.65
27643;BME280;15053;48.618;10.024;2024-01-30T03:43:36;95527.56;;;2.99;86.70
27643;BME280;15053;48.618;10.024;2024-01-30T03:46:03;95522.47;;;2.93;86.44
27643;BME280;15053;48.618;10.024;2024-01-30T03:48:30;95527.25;;;2.89;87.03
27643;BME280;15053;48.618;10.024;2024-01-30T03:50:57;95529.88;;;2.83;86.98
27643;BME280;15053;48.618;10.024;2024-01-30T03:53:23;95528.91;;;2.77;86.82
27643;BME280;15053;48.618;10.024;2024-01-30T03:55:50;95530.72;;;2.70;86.73
27643;BME280;15053;48.618;10.024;2024-01-30T03:58:16;95525.38;;;2.72;87.49
27643;BME280;15053;48.618;10.024;2024-01-30T04:00:43;95520.81;;;2.74;88.23
27643;BME280;15053;48.618;10.024;2024-01-30T04:03:11;95532.47;;;2.76;88.23
27643;BME280;15053;48.618;10.024;2024-01-30T04:05:37;95533.25;;;2.77;88.50
27643;BME280;15053;48.618;10.024;2024-01-30T04:08:04;95529.31;;;2.74;87.78
27643;BME280;15053;48.618;10.024;2024-01-30T04:10:31;95527.34;;;2.70;88.24
27643;BME280;15053;48.618;10.024;2024-01-30T04:12:57;95537.63;;;2.70;88.31
27643;BME280;15053;48.618;10.024;2024-01-30T04:15:24;95535.69;;;2.65;88.31
27643;BME280;15053;48.618;10.024;2024-01-30T04:17:51;95543.19;;;2.67;87.95
27643;BME280;15053;48.618;10.024;2024-01-30T04:20:17;95543.97;;;2.67;88.05
27643;BME280;15053;48.618;10.024;2024-01-30T04:22:44;95536.47;;;2.66;87.95
27643;BME280;15053;48.618;10.024;2024-01-30T04:25:12;95539.47;;;2.63;88.02
27643;BME280;15053;48.618;10.024;2024-01-30T04:27:39;95537.28;;;2.60;88.49
27643;BME280;15053;48.618;10.024;2024-01-30T04:30:06;95533.19;;;2.52;87.95
27643;BME280;15053;48.618;10.024;2024-01-30T04:32:33;95533.97;;;2.53;87.87
27643;BME280;15053;48.618;10.024;2024-01-30T04:34:59;95540.09;;;2.52;88.08
27643;BME280;15053;48.618;10.024;2024-01-30T04:37:26;95538.31;;;2.52;88.25
27643;BME280;15053;48.618;10.024;2024-01-30T04:39:53;95530.44;;;2.47;87.85
27643;BME280;15053;48.618;10.024;2024-01-30T04:42:19;95536.19;;;2.43;87.69
27643;BME280;15053;48.618;10.024;2024-01-30T04:44:46;95537.78;;;2.37;87.82
27643;BME280;15053;48.618;10.024;2024-01-30T04:47:12;95537.81;;;2.30;87.46
27643;BME280;15053;48.618;10.024;2024-01-30T04:49:39;95534.31;;;2.18;86.72
27643;BME280;15053;48.618;10.024;2024-01-30T04:52:09;95538.25;;;2.14;86.81
27643;BME280;15053;48.618;10.024;2024-01-30T04:54:35;95537.09;;;2.04;86.80
27643;BME280;15053;48.618;10.024;2024-01-30T04:57:02;95546.41;;;2.05;86.64
27643;BME280;15053;48.618;10.024;2024-01-30T04:59:29;95543.44;;;2.01;87.01
27643;BME280;15053;48.618;10.024;2024-01-30T05:01:55;95548.00;;;1.99;87.17
27643;BME280;15053;48.618;10.024;2024-01-30T05:04:22;95548.97;;;1.98;87.10
27643;BME280;15053;48.618;10.024;2024-01-30T05:06:49;95551.75;;;1.97;87.75
27643;BME280;15053;48.618;10.024;2024-01-30T05:09:15;95557.69;;;1.97;88.26
27643;BME280;15053;48.618;10.024;2024-01-30T05:11:42;95552.16;;;1.94;87.85
27643;BME280;15053;48.618;10.024;2024-01-30T05:14:08;95558.09;;;1.94;88.17
27643;BME280;15053;48.618;10.024;2024-01-30T05:16:35;95552.56;;;1.97;88.36
27643;BME280;15053;48.618;10.024;2024-01-30T05:19:02;95554.72;;;2.00;88.68
27643;BME280;15053;48.618;10.024;2024-01-30T05:21:29;95554.31;;;2.03;88.96
27643;BME280;15053;48.618;10.024;2024-01-30T05:23:55;95543.44;;;2.08;89.05
27643;BME280;15053;48.618;10.024;2024-01-30T05:26:22;95546.97;;;2.13;89.71
27643;BME280;15053;48.618;10.024;2024-01-30T05:28:49;95541.44;;;2.16;89.86
27643;BME280;15053;48.618;10.024;2024-01-30T05:31:16;95547.72;;;2.20;89.95
27643;BME280;15053;48.618;10.024;2024-01-30T05:33:42;95552.47;;;2.23;89.77
27643;BME280;15053;48.618;10.024;2024-01-30T05:36:12;95547.91;;;2.25;89.46
27643;BME280;15053;48.618;10.024;2024-01-30T05:38:39;95548.13;;;2.24;88.85
27643;BME280;15053;48.618;10.024;2024-01-30T05:41:05;95557.59;;;2.23;89.35
27643;BME280;15053;48.618;10.024;2024-01-30T05:43:32;95554.84;;;2.25;89.30
27643;BME280;15053;48.618;10.024;2024-01-30T05:45:59;95556.63;;;2.24;89.21
27643;BME280;15053;48.618;10.024;2024-01-30T05:48:25;95556.03;;;2.22;88.65
27643;BME280;15053;48.618;10.024;2024-01-30T05:50:52;95553.88;;;2.19;88.54
27643;BME280;15053;48.618;10.024;2024-01-30T05:53:19;95557.81;;;2.15;88.47
27643;BME280;15053;48.618;10.024;2024-01-30T05:55:45;95555.47;;;2.07;88.18
27643;BME280;15053;48.618;10.024;2024-01-30T05:58:12;95558.06;;;2.01;87.81
27643;BME280;15053;48.618;10.024;2024-01-30T06:00:38;95560.44;;;1.96;87.93
27643;BME280;15053;48.618;10.024;2024-01-30T06:03:05;95554.13;;;1.92;87.58
27643;BME280;15053;48.618;10.024;2024-01-30T06:05:32;95544.66;;;1.92;87.99
27643;BME280;15053;48.618;10.024;2024-01-30T06:07:58;95549.97;;;1.97;88.65
27643;BME280;15053;48.618;10.024;2024-01-30T06:10:25;95548.97;;;1.98;88.61
27643;BME280;15053;48.618;10.024;2024-01-30T06:12:52;95558.25;;;2.06;88.56
27643;BME280;15053;48.618;10.024;2024-01-30T06:15:18;95558.25;;;2.06;89.05
27643;BME280;15053;48.618;10.024;2024-01-30T06:17:45;95560.78;;;2.12;89.69
27643;BME280;15053;48.618;10.024;2024-01-30T06:20:12;95555.66;;;2.19;89.73
27643;BME280;15053;48.618;10.024;2024-01-30T06:22:38;95560.16;;;2.23;90.13
27643;BME280;15053;48.618;10.024;2024-01-30T06:25:05;95555.22;;;2.28;90.24
27643;BME280;15053;48.618;10.024;2024-01-30T06:27:31;95551.44;;;2.31;90.40
27643;BME280;15053;48.618;10.024;2024-01-30T06:29:58;95563.88;;;2.41;90.26
27643;BME280;15053;48.618;10.024;2024-01-30T06:32:25;95558.13;;;2.45;90.38
27643;BME280;15053;48.618;10.024;2024-01-30T06:34:52;95557.53;;;2.50;90.04
27643;BME280;15053;48.618;10.024;2024-01-30T06:37:18;95554.91;;;2.56;90.40
27643;BME280;15053;48.618;10.024;2024-01-30T06:39:45;95554.31;;;2.61;89.94
27643;BME280;15053;48.618;10.024;2024-01-30T06:42:11;95551.91;;;2.66;90.01
27643;BME280;15053;48.618;10.024;2024-01-30T06:44:38;95556.25;;;2.72;90.07
27643;BME280;15053;48.618;10.024;2024-01-30T06:47:04;95555.81;;;2.75;89.71
27643;BME280;15053;48.618;10.024;2024-01-30T06:49:31;95558.97;;;2.77;89.43
27643;BME280;15053;48.618;10.024;2024-01-30T06:51:58;95560.72;;;2.83;89.34
27643;BME280;15053;48.618;10.024;2024-01-30T06:54:24;95546.06;;;2.83;89.18
27643;BME280;15053;48.618;10.024;2024-01-30T06:56:51;95553.19;;;2.88;88.75
27643;BME280;15053;48.618;10.024;2024-01-30T06:59:17;95552.56;;;2.86;88.51
27643;BME280;15053;48.618;10.024;2024-01-30T07:01:44;95565.09;;;2.82;88.37
27643;BME280;15053;48.618;10.024;2024-01-30T07:04:11;95566.06;;;2.81;88.05
27643;BME280;15053;48.618;10.024;2024-01-30T07:06:37;95570.41;;;2.81;87.58
27643;BME280;15053;48.618;10.024;2024-01-30T07:09:04;95572.81;;;2.76;88.02
27643;BME280;15053;48.618;10.024;2024-01-30T07:11:31;95567.69;;;2.76;87.84
27643;BME280;15053;48.618;10.024;2024-01-30T07:13:58;95575.97;;;2.78;88.00
27643;BME280;15053;48.618;10.024;2024-01-30T07:16:25;95568.06;;;2.79;88.22
27643;BME280;15053;48.618;10.024;2024-01-30T07:18:51;95571.44;;;2.80;87.96
27643;BME280;15053;48.618;10.024;2024-01-30T07:21:19;95573.00;;;2.81;88.01
27643;BME280;15053;48.618;10.024;2024-01-30T07:23:48;95579.88;;;2.87;87.97
27643;BME280;15053;48.618;10.024;2024-01-30T07:26:14;95576.50;;;2.93;88.32
27643;BME280;15053;48.618;10.024;2024-01-30T07:28:41;95582.78;;;2.97;88.27
27643;BME280;15053;48.618;10.024;2024-01-30T07:31:07;95586.53;;;3.01;87.87
27643;BME280;15053;48.618;10.024;2024-01-30T07:33:34;95583.34;;;3.06;88.28
27643;BME280;15053;48.618;10.024;2024-01-30T07:36:00;95587.66;;;3.12;87.84
27643;BME280;15053;48.618;10.024;2024-01-30T07:38:27;95587.63;;;3.18;88.31
27643;BME280;15053;48.618;10.024;2024-01-30T07:40:54;95586.03;;;3.24;88.12
27643;BME280;15053;48.618;10.024;2024-01-30T07:43:20;95585.97;;;3.30;88.49
27643;BME280;15053;48.618;10.024;2024-01-30T07:45:47;95590.03;;;3.44;88.14
27643;BME280;15053;48.618;10.024;2024-01-30T07:48:14;95588.09;;;3.65;87.43
27643;BME280;15053;48.618;10.024;2024-01-30T07:50:41;95593.09;;;3.84;87.42
27643;BME280;15053;48.618;10.024;2024-01-30T07:53:07;95590.59;;;3.96;86.42
27643;BME280;15053;48.618;10.024;2024-01-30T07:55:34;95589.88;;;4.07;85.72
27643;BME280;15053;48.618;10.024;2024-01-30T07:58:01;95590.34;;;4.22;85.79
27643;BME280;15053;48.618;10.024;2024-01-30T08:00:28;95598.50;;;4.37;85.38
27643;BME280;15053;48.618;10.024;2024-01-30T08:02:55;95595.56;;;4.52;84.29
27643;BME280;15053;48.618;10.024;2024-01-30T08:05:23;95595.22;;;4.66;83.82
27643;BME280;15053;48.618;10.024;2024-01-30T08:07:50;95598.19;;;4.82;82.40
27643;BME280;15053;48.618;10.024;2024-01-30T08:10:17;95594.69;;;4.94;82.42
27643;BME280;15053;48.618;10.024;2024-01-30T08:12:47;95598.88;;;5.07;81.51
27643;BME280;15053;48.618;10.024;2024-01-30T08:15:13;95601.16;;;5.15;81.86
27643;BME280;15053;48.618;10.024;2024-01-30T08:17:40;95596.22;;;5.25;81.68
27643;BME280;15053;48.618;10.024;2024-01-30T08:20:07;95600.66;;;5.36;80.49
27643;BME280;15053;48.618;10.024;2024-01-30T08:22:39;95594.50;;;5.49;80.81
27643;BME280;15053;48.618;10.024;2024-01-30T08:25:07;95600.28;;;5.62;80.45
27643;BME280;15053;48.618;10.024;2024-01-30T08:27:34;95592.31;;;5.75;79.54
27643;BME280;15053;48.618;10.024;2024-01-30T08:30:02;95592.56;;;5.85;78.90
27643;BME280;15053;48.618;10.024;2024-01-30T08:32:29;95597.06;;;6.02;78.49
27643;BME280;15053;48.618;10.024;2024-01-30T08:34:56;95598.41;;;6.16;77.34
27643;BME280;15053;48.618;10.024;2024-01-30T08:37:24;95596.16;;;6.31;76.29
27643;BME280;15053;48.618;10.024;2024-01-30T08:39:50;95589.66;;;6.40;76.20
27643;BME280;15053;48.618;10.024;2024-01-30T08:42:17;95593.22;;;6.50;75.41
27643;BME280;15053;48.618;10.024;2024-01-30T08:44:49;95584.75;;;6.55;75.24
27643;BME280;15053;48.618;10.024;2024-01-30T08:47:17;95591.97;;;6.65;74.63
27643;BME280;15053;48.618;10.024;2024-01-30T08:49:45;95589.78;;;6.73;74.49
27643;BME280;15053;48.618;10.024;2024-01-30T08:52:12;95581.91;;;6.68;74.20
27643;BME280;15053;48.618;10.024;2024-01-30T08:54:38;95595.72;;;6.85;74.61
27643;BME280;15053;48.618;10.024;2024-01-30T08:57:05;95593.00;;;6.92;74.83
27643;BME280;15053;48.618;10.024;2024-01-30T08:59:31;95589.25;;;6.99;74.84
27643;BME280;15053;48.618;10.024;2024-01-30T09:01:58;95585.28;;;7.08;74.78
27643;BME280;15053;48.618;10.024;2024-01-30T09:04:37;95596.03;;;7.17;74.57
27643;BME280;15053;48.618;10.024;2024-01-30T09:07:04;95593.31;;;7.24;74.33
27643;BME280;15053;48.618;10.024;2024-01-30T09:09:37;95591.34;;;7.31;75.23
27643;BME280;15053;48.618;10.024;2024-01-30T09:12:03;95589.63;;;7.36;74.40
27643;BME280;15053;48.618;10.024;2024-01-30T09:14:33;95594.16;;;7.41;74.29
27643;BME280;15053;48.618;10.024;2024-01-30T09:17:00;95587.47;;;7.45;74.71
27643;BME280;15053;48.618;10.024;2024-01-30T09:19:26;95589.59;;;7.48;74.87
27643;BME280;15053;48.618;10.024;2024-01-30T09:21:53;95598.16;;;7.48;74.15
27643;BME280;15053;48.618;10.024;2024-01-30T09:24:19;95599.50;;;7.51;74.45
27643;BME280;15053;48.618;10.024;2024-01-30T09:26:46;95599.50;;;7.51;74.10
27643;BME280;15053;48.618;10.024;2024-01-30T09:29:13;95601.22;;;7.45;73.79
27643;BME280;15053;48.618;10.024;2024-01-30T09:31:39;95603.47;;;7.42;72.65
27643;BME280;15053;48.618;10.024;2024-01-30T09:34:06;95600.66;;;7.43;73.02
27643;BME280;15053;48.618;10.024;2024-01-30T09:36:32;95606.94;;;7.47;72.83
27643;BME280;15053;48.618;10.024;2024-01-30T09:38:59;95613.25;;;7.51;73.27
27643;BME280;15053;48.618;10.024;2024-01-30T09:41:27;95602.94;;;7.56;72.99
27643;BME280;15053;48.618;10.024;2024-01-30T09:43:54;95599.75;;;7.66;72.54
27643;BME280;15053;48.618;10.024;2024-01-30T09:46:26;95598.19;;;7.82;72.68
27643;BME280;15053;48.618;10.024;2024-01-30T09:48:55;95597.38;;;7.98;71.49
27643;BME280;15053;48.618;10.024;2024-01-30T09:51:25;95598.47;;;8.18;70.49
27643;BME280;15053;48.618;10.024;2024-01-30T09:53:51;95596.44;;;8.37;70.27
27643;BME280;15053;48.618;10.024;2024-01-30T09:56:19;95591.47;;;8.57;69.46
27643;BME280;15053;48.618;10.024;2024-01-30T09:58:45;95602.38;;;8.76;69.62
27643;BME280;15053;48.618;10.024;2024-01-30T10:01:12;95604.47;;;8.79;70.47
27643;BME280;15053;48.618;10.024;2024-01-30T10:03:39;95600.00;;;8.74;71.47
27643;BME280;15053;48.618;10.024;2024-01-30T10:06:07;95603.88;;;8.72;72.31
27643;BME280;15053;48.618;10.024;2024-01-30T10:08:34;95604.63;;;8.67;72.97
27643;BME280;15053;48.618;10.024;2024-01-30T10:11:01;95602.31;;;8.71;72.73
27643;BME280;15053;48.618;10.024;2024-01-30T10:13:28;95603.94;;;8.77;72.86
27643;BME280;15053;48.618;10.024;2024-01-30T10:15:55;95602.50;;;8.86;72.93
27643;BME280;15053;48.618;10.024;2024-01-30T10:18:24;95606.78;;;8.97;72.82
27643;BME280;15053;48.618;10.024;2024-01-30T10:20:51;95606.34;;;9.05;72.78
27643;BME280;15053;48.618;10.024;2024-01-30T10:23:18;95598.16;;;9.18;72.61
27643;BME280;15053;48.618;10.024;2024-01-30T10:25:45;95596.75;;;9.32;72.12
27643;BME280;15053;48.618;10.024;2024-01-30T10:28:12;95594.84;;;9.49;71.85
27643;BME280;15053;48.618;10.024;2024-01-30T10:30:39;95597.78;;;9.58;71.46
27643;BME280;15053;48.618;10.024;2024-01-30T10:33:06;95590.59;;;9.70;71.35
27643;BME280;15053;48.618;10.024;2024-01-30T10:35:32;95591.75;;;9.84;71.07
27643;BME280;15053;48.618;10.024;2024-01-30T10:38:00;95589.53;;;10.03;70.77
27643;BME280;15053;48.618;10.024;2024-01-30T10:40:28;95594.44;;;10.31;69.54
27643;BME280;15053;48.618;10.024;2024-01-30T10:42:55;95589.38;;;10.56;68.94
27643;BME280;15053;48.618;10.024;2024-01-30T10:45:26;95583.00;;;10.89;67.70
27643;BME280;15053;48.618;10.024;2024-01-30T10:47:55;95578.13;;;11.13;66.59
27643;BME280;15053;48.618;10.024;2024-01-30T10:50:25;95573.47;;;11.35;65.31
27643;BME280;15053;48.618;10.024;2024-01-30T10:52:54;95572.22;;;11.58;63.65
27643;BME280;15053;48.618;10.024;2024-01-30T10:55:22;95576.69;;;11.77;63.44
27643;BME280;15053;48.618;10.024;2024-01-30T10:57:50;95574.59;;;11.95;61.70
27643;BME280;15053;48.618;10.024;2024-01-30T11:00:17;95571.47;;;12.08;59.31
27643;BME280;15053;48.618;10.024;2024-01-30T11:02:49;95565.69;;;12.16;58.65
27643;BME280;15053;48.618;10.024;2024-01-30T11:05:23;95577.19;;;12.30;60.04
27643;BME280;15053;48.618;10.024;2024-01-30T11:07:54;95578.47;;;12.37;60.23
27643;BME280;15053;48.618;10.024;2024-01-30T11:10:20;95567.19;;;12.42;60.40
27643;BME280;15053;48.618;10.024;2024-01-30T11:12:47;95571.38;;;12.43;60.81
27643;BME280;15053;48.618;10.024;2024-01-30T11:15:15;95572.97;;;12.44;61.14
27643;BME280;15053;48.618;10.024;2024-01-30T11:20:17;95566.72;;;12.35;62.29
27643;BME280;15053;48.618;10.024;2024-01-30T11:22:46;95563.03;;;12.31;62.62
27643;BME280;15053;48.618;10.024;2024-01-30T11:25:15;95555.72;;;12.28;62.94
27643;BME280;15053;48.618;10.024;2024-01-30T11:27:45;95563.31;;;12.29;63.27
27643;BME280;15053;48.618;10.024;2024-01-30T11:30:25;95557.84;;;12.36;63.80
27643;BME280;15053;48.618;10.024;2024-01-30T11:33:02;95556.53;;;12.38;64.03
27643;BME280;15053;48.618;10.024;2024-01-30T11:35:43;95555.72;;;12.43;63.91
27643;BME280;15053;48.618;10.024;2024-01-30T11:38:13;95548.38;;;12.45;63.25
27643;BME280;15053;48.618;10.024;2024-01-30T11:40:40;95548.91;;;12.42;63.98
27643;BME280;15053;48.618;10.024;2024-01-30T11:43:08;95554.69;;;12.34;63.55
27643;BME280;15053;48.618;10.024;2024-01-30T11:45:36;95548.97;;;12.22;63.78
27643;BME280;15053;48.618;10.024;2024-01-30T11:48:03;95543.78;;;12.07;63.56
27643;BME280;15053;48.618;10.024;2024-01-30T11:50:33;95539.59;;;11.96;63.82
27643;BME280;15053;48.618;10.024;2024-01-30T11:53:00;95533.59;;;11.90;64.59
27643;BME280;15053;48.618;10.024;2024-01-30T11:55:29;95530.75;;;11.76;64.22
27643;BME280;15053;48.618;10.024;2024-01-30T11:58:00;95532.81;;;11.64;64.96
27643;BME280;15053;48.618;10.024;2024-01-30T12:00:27;95533.88;;;11.58;65.30
27643;BME280;15053;48.618;10.024;2024-01-30T12:02:55;95529.16;;;11.60;66.14
27643;BME280;15053;48.618;10.024;2024-01-30T12:05:23;95532.03;;;11.64;66.03
27643;BME280;15053;48.618;10.024;2024-01-30T12:07:50;95533.38;;;11.71;66.58
27643;BME280;15053;48.618;10.024;2024-01-30T12:10:17;95525.53;;;11.76;66.56
27643;BME280;15053;48.618;10.024;2024-01-30T12:12:49;95523.97;;;11.80;66.57
27643;BME280;15053;48.618;10.024;2024-01-30T12:15:16;95534.94;;;11.82;66.69
27643;BME280;15053;48.618;10.024;2024-01-30T12:17:44;95527.09;;;11.88;66.31
27643;BME280;15053;48.618;10.024;2024-01-30T12:20:13;95519.25;;;11.93;65.90
27643;BME280;15053;48.618;10.024;2024-01-30T12:22:47;95530.75;;;11.97;66.12
27643;BME280;15053;48.618;10.024;2024-01-30T12:25:17;95528.91;;;12.02;66.13
27643;BME280;15053;48.618;10.024;2024-01-30T12:27:47;95523.41;;;12.04;66.09
27643;BME280;15053;48.618;10.024;2024-01-30T12:30:19;95521.84;;;12.08;65.66
27643;BME280;15053;48.618;10.024;2024-01-30T12:32:50;95522.88;;;12.12;66.25
27643;BME280;15053;48.618;10.024;2024-01-30T12:35:18;95517.91;;;12.10;65.82
27643;BME280;15053;48.618;10.024;2024-01-30T12:37:46;95521.56;;;12.14;66.11
27643;BME280;15053;48.618;10.024;2024-01-30T12:40:14;95521.31;;;12.16;65.55
27643;BME280;15053;48.618;10.024;2024-01-30T12:42:42;95513.19;;;12.17;65.80
27643;BME280;15053;48.618;10.024;2024-01-30T12:45:09;95514.75;;;12.23;65.68
27643;BME280;15053;48.618;10.024;2024-01-30T12:47:36;95513.97;;;12.23;66.14
27643;BME280;15053;48.618;10.024;2024-01-30T12:50:03;95511.34;;;12.23;66.06
27643;BME280;15053;48.618;10.024;2024-01-30T12:52:30;95516.84;;;12.21;66.59
27643;BME280;15053;48.618;10.024;2024-01-30T12:54:57;95516.56;;;12.28;66.32
27643;BME280;15053;48.618;10.024;2024-01-30T12:57:24;95518.91;;;12.34;66.23
27643;BME280;15053;48.618;10.024;2024-01-30T12:59:51;95506.09;;;12.38;66.11